sensor_id;sensor_type;location;lat;lon;timestamp;P1;durP1;ratioP1;P2;durP2;ratioP2
23181;SDS011;11759;51.282;6.642;2022-07-01T00:00:43;61.35;;;20.23;;
23181;SDS011;11759;51.282;6.642;2022-07-01T00:03:10;71.18;;;21.95;;
23181;SDS011;11759;51.282;6.642;2022-07-01T00:05:36;67.57;;;21.08;;
23181;SDS011;11759;51.282;6.642;2022-07-01T00:08:03;65.82;;;20.75;;
23181;SDS011;11759;51.282;6.642;2022-07-01T00:10:30;57.00;;;20.50;;
23181;SDS011;11759;51.282;6.642;2022-07-01T00:12:57;60.92;;;20.52;;
23181;SDS011;11759;51.282;6.642;2022-07-01T00:15:23;59.40;;;21.02;;
23181;SDS011;11759;51.282;6.642;2022-07-01T00:17:50;61.85;;;19.52;;
23181;SDS011;11759;51.282;6.642;2022-07-01T00:20:16;64.20;;;20.83;;
23181;SDS011;11759;51.282;6.642;2022-07-01T00:22:43;64.57;;;20.27;;
23181;SDS011;11759;51.282;6.642;2022-07-01T00:25:10;68.38;;;20.15;;
23181;SDS011;11759;51.282;6.642;2022-07-01T00:27:37;65.75;;;20.33;;
23181;SDS011;11759;51.282;6.642;2022-07-01T00:30:05;59.88;;;19.98;;
23181;SDS011;11759;51.282;6.642;2022-07-01T00:32:32;61.80;;;20.20;;
23181;SDS011;11759;51.282;6.642;2022-07-01T00:34:59;55.28;;;19.30;;
23181;SDS011;11759;51.282;6.642;2022-07-01T00:37:26;60.85;;;18.27;;
23181;SDS011;11759;51.282;6.642;2022-07-01T00:39:52;50.40;;;17.70;;
23181;SDS011;11759;51.282;6.642;2022-07-01T00:42:19;58.38;;;17.65;;
23181;SDS011;11759;51.282;6.642;2022-07-01T00:44:46;62.22;;;16.52;;
23181;SDS011;11759;51.282;6.642;2022-07-01T00:47:13;49.25;;;16.25;;
23181;SDS011;11759;51.282;6.642;2022-07-01T00:49:40;45.17;;;15.68;;
23181;SDS011;11759;51.282;6.642;2022-07-01T00:52:07;43.38;;;14.40;;
23181;SDS011;11759;51.282;6.642;2022-07-01T00:54:35;40.03;;;14.98;;
23181;SDS011;11759;51.282;6.642;2022-07-01T00:57:06;41.65;;;14.43;;
23181;SDS011;11759;51.282;6.642;2022-07-01T00:59:37;49.45;;;15.15;;
23181;SDS011;11759;51.282;6.642;2022-07-01T01:02:06;52.47;;;15.13;;
23181;SDS011;11759;51.282;6.642;2022-07-01T01:04:33;47.55;;;14.57;;
23181;SDS011;11759;51.282;6.642;2022-07-01T01:07:01;51.95;;;15.32;;
23181;SDS011;11759;51.282;6.642;2022-07-01T01:09:28;57.92;;;16.00;;
23181;SDS011;11759;51.282;6.642;2022-07-01T01:12:00;52.47;;;15.40;;
23181;SDS011;11759;51.282;6.642;2022-07-01T01:17:27;44.28;;;14.70;;
23181;SDS011;11759;51.282;6.642;2022-07-01T01:19:53;47.75;;;14.15;;
23181;SDS011;11759;51.282;6.642;2022-07-01T01:22:20;62.15;;;16.23;;
23181;SDS011;11759;51.282;6.642;2022-07-01T01:24:47;57.75;;;16.05;;
23181;SDS011;11759;51.282;6.642;2022-07-01T01:27:13;57.03;;;15.80;;
23181;SDS011;11759;51.282;6.642;2022-07-01T01:29:40;51.53;;;15.63;;
23181;SDS011;11759;51.282;6.642;2022-07-01T01:32:07;45.85;;;15.13;;
23181;SDS011;11759;51.282;6.642;2022-07-01T01:34:34;60.97;;;16.77;;
23181;SDS011;11759;51.282;6.642;2022-07-01T01:37:07;60.95;;;16.40;;
23181;SDS011;11759;51.282;6.642;2022-07-01T01:39:34;57.50;;;15.63;;
23181;SDS011;11759;51.282;6.642;2022-07-01T01:42:04;67.00;;;16.60;;
23181;SDS011;11759;51.282;6.642;2022-07-01T01:44:32;58.33;;;17.05;;
23181;SDS011;11759;51.282;6.642;2022-07-01T01:46:59;70.22;;;18.05;;
23181;SDS011;11759;51.282;6.642;2022-07-01T01:49:26;65.80;;;17.55;;
23181;SDS011;11759;51.282;6.642;2022-07-01T01:51:52;68.25;;;18.58;;
23181;SDS011;11759;51.282;6.642;2022-07-01T01:54:19;71.63;;;18.98;;
23181;SDS011;11759;51.282;6.642;2022-07-01T01:56:46;65.78;;;18.52;;
23181;SDS011;11759;51.282;6.642;2022-07-01T01:59:12;68.10;;;19.17;;
23181;SDS011;11759;51.282;6.642;2022-07-01T02:01:39;80.90;;;20.45;;
23181;SDS011;11759;51.282;6.642;2022-07-01T02:04:06;76.95;;;19.30;;
23181;SDS011;11759;51.282;6.642;2022-07-01T02:06:33;98.18;;;20.70;;
23181;SDS011;11759;51.282;6.642;2022-07-01T02:09:00;78.18;;;20.42;;
23181;SDS011;11759;51.282;6.642;2022-07-01T02:11:27;76.78;;;21.23;;
23181;SDS011;11759;51.282;6.642;2022-07-01T02:13:53;100.05;;;23.10;;
23181;SDS011;11759;51.282;6.642;2022-07-01T02:16:20;105.40;;;22.02;;
23181;SDS011;11759;51.282;6.642;2022-07-01T02:18:46;85.10;;;22.50;;
23181;SDS011;11759;51.282;6.642;2022-07-01T02:21:14;103.65;;;24.42;;
23181;SDS011;11759;51.282;6.642;2022-07-01T02:23:41;89.75;;;24.25;;
23181;SDS011;11759;51.282;6.642;2022-07-01T02:26:08;92.57;;;24.65;;
23181;SDS011;11759;51.282;6.642;2022-07-01T02:28:34;109.07;;;25.23;;
23181;SDS011;11759;51.282;6.642;2022-07-01T02:31:01;105.35;;;25.35;;
23181;SDS011;11759;51.282;6.642;2022-07-01T02:33:29;94.18;;;24.60;;
23181;SDS011;11759;51.282;6.642;2022-07-01T02:35:56;103.75;;;23.88;;
23181;SDS011;11759;51.282;6.642;2022-07-01T02:38:23;106.28;;;26.30;;
23181;SDS011;11759;51.282;6.642;2022-07-01T02:40:49;110.40;;;26.50;;
23181;SDS011;11759;51.282;6.642;2022-07-01T02:43:16;92.93;;;24.08;;
23181;SDS011;11759;51.282;6.642;2022-07-01T02:45:43;104.30;;;25.08;;
23181;SDS011;11759;51.282;6.642;2022-07-01T02:48:09;99.10;;;25.83;;
23181;SDS011;11759;51.282;6.642;2022-07-01T02:50:36;81.75;;;24.60;;
23181;SDS011;11759;51.282;6.642;2022-07-01T02:53:02;102.60;;;26.20;;
23181;SDS011;11759;51.282;6.642;2022-07-01T02:55:30;105.13;;;25.45;;
23181;SDS011;11759;51.282;6.642;2022-07-01T02:57:56;82.85;;;24.65;;
23181;SDS011;11759;51.282;6.642;2022-07-01T03:00:24;94.63;;;23.50;;
23181;SDS011;11759;51.282;6.642;2022-07-01T03:02:52;98.85;;;25.52;;
23181;SDS011;11759;51.282;6.642;2022-07-01T03:05:18;83.78;;;24.33;;
23181;SDS011;11759;51.282;6.642;2022-07-01T03:07:45;89.90;;;25.02;;
23181;SDS011;11759;51.282;6.642;2022-07-01T03:10:12;92.18;;;25.15;;
23181;SDS011;11759;51.282;6.642;2022-07-01T03:12:39;78.57;;;24.42;;
23181;SDS011;11759;51.282;6.642;2022-07-01T03:15:10;81.97;;;24.05;;
23181;SDS011;11759;51.282;6.642;2022-07-01T03:17:39;81.40;;;22.45;;
23181;SDS011;11759;51.282;6.642;2022-07-01T03:20:08;76.55;;;23.17;;
23181;SDS011;11759;51.282;6.642;2022-07-01T03:22:36;75.45;;;22.27;;
23181;SDS011;11759;51.282;6.642;2022-07-01T03:25:03;68.85;;;20.90;;
23181;SDS011;11759;51.282;6.642;2022-07-01T03:27:31;80.43;;;22.05;;
23181;SDS011;11759;51.282;6.642;2022-07-01T03:29:58;65.47;;;20.27;;
23181;SDS011;11759;51.282;6.642;2022-07-01T03:32:25;69.15;;;21.40;;
23181;SDS011;11759;51.282;6.642;2022-07-01T03:34:52;66.40;;;19.25;;
23181;SDS011;11759;51.282;6.642;2022-07-01T03:37:19;59.63;;;20.30;;
23181;SDS011;11759;51.282;6.642;2022-07-01T03:39:47;59.53;;;20.05;;
23181;SDS011;11759;51.282;6.642;2022-07-01T03:42:13;56.42;;;19.75;;
23181;SDS011;11759;51.282;6.642;2022-07-01T03:44:40;69.50;;;20.83;;
23181;SDS011;11759;51.282;6.642;2022-07-01T03:47:07;63.33;;;19.05;;
23181;SDS011;11759;51.282;6.642;2022-07-01T03:49:34;64.25;;;19.48;;
23181;SDS011;11759;51.282;6.642;2022-07-01T03:52:02;55.17;;;18.85;;
23181;SDS011;11759;51.282;6.642;2022-07-01T03:54:29;65.78;;;18.35;;
23181;SDS011;11759;51.282;6.642;2022-07-01T03:56:59;56.05;;;17.15;;
23181;SDS011;11759;51.282;6.642;2022-07-01T03:59:27;55.08;;;17.45;;
23181;SDS011;11759;51.282;6.642;2022-07-01T04:01:55;57.83;;;17.30;;
23181;SDS011;11759;51.282;6.642;2022-07-01T04:04:23;49.03;;;17.75;;
23181;SDS011;11759;51.282;6.642;2022-07-01T04:06:50;56.05;;;16.90;;
23181;SDS011;11759;51.282;6.642;2022-07-01T04:09:17;49.22;;;16.45;;
23181;SDS011;11759;51.282;6.642;2022-07-01T04:11:44;44.55;;;15.80;;
23181;SDS011;11759;51.282;6.642;2022-07-01T04:14:12;46.17;;;15.93;;
23181;SDS011;11759;51.282;6.642;2022-07-01T04:16:39;40.97;;;14.40;;
23181;SDS011;11759;51.282;6.642;2022-07-01T04:19:06;43.33;;;14.95;;
23181;SDS011;11759;51.282;6.642;2022-07-01T04:21:33;48.65;;;14.30;;
23181;SDS011;11759;51.282;6.642;2022-07-01T04:24:19;35.53;;;13.70;;
23181;SDS011;11759;51.282;6.642;2022-07-01T04:26:45;32.20;;;13.38;;
23181;SDS011;11759;51.282;6.642;2022-07-01T04:29:12;43.40;;;13.38;;
23181;SDS011;11759;51.282;6.642;2022-07-01T04:31:39;44.80;;;12.85;;
23181;SDS011;11759;51.282;6.642;2022-07-01T04:34:06;41.35;;;13.35;;
23181;SDS011;11759;51.282;6.642;2022-07-01T04:36:33;35.40;;;12.57;;
23181;SDS011;11759;51.282;6.642;2022-07-01T04:39:00;36.70;;;13.90;;
23181;SDS011;11759;51.282;6.642;2022-07-01T04:41:27;32.28;;;12.15;;
23181;SDS011;11759;51.282;6.642;2022-07-01T04:44:12;34.85;;;12.80;;
23181;SDS011;11759;51.282;6.642;2022-07-01T04:46:39;37.85;;;13.48;;
23181;SDS011;11759;51.282;6.642;2022-07-01T04:49:05;37.47;;;12.80;;
23181;SDS011;11759;51.282;6.642;2022-07-01T04:51:33;33.72;;;11.38;;
23181;SDS011;11759;51.282;6.642;2022-07-01T04:54:04;36.50;;;11.95;;
23181;SDS011;11759;51.282;6.642;2022-07-01T04:56:32;29.35;;;12.43;;
23181;SDS011;11759;51.282;6.642;2022-07-01T04:59:00;25.90;;;11.25;;
23181;SDS011;11759;51.282;6.642;2022-07-01T05:01:27;26.98;;;11.25;;
23181;SDS011;11759;51.282;6.642;2022-07-01T05:03:55;29.50;;;11.38;;
23181;SDS011;11759;51.282;6.642;2022-07-01T05:06:22;26.83;;;11.20;;
23181;SDS011;11759;51.282;6.642;2022-07-01T05:08:48;31.95;;;11.07;;
23181;SDS011;11759;51.282;6.642;2022-07-01T05:11:15;29.77;;;10.60;;
23181;SDS011;11759;51.282;6.642;2022-07-01T05:13:42;25.42;;;10.63;;
23181;SDS011;11759;51.282;6.642;2022-07-01T05:16:08;22.20;;;10.90;;
23181;SDS011;11759;51.282;6.642;2022-07-01T05:18:36;29.25;;;9.85;;
23181;SDS011;11759;51.282;6.642;2022-07-01T05:21:22;24.98;;;11.45;;
23181;SDS011;11759;51.282;6.642;2022-07-01T05:24:08;30.30;;;10.88;;
23181;SDS011;11759;51.282;6.642;2022-07-01T05:26:34;23.88;;;11.02;;
23181;SDS011;11759;51.282;6.642;2022-07-01T05:29:01;24.90;;;11.15;;
23181;SDS011;11759;51.282;6.642;2022-07-01T05:31:27;31.33;;;11.60;;
23181;SDS011;11759;51.282;6.642;2022-07-01T05:33:54;22.10;;;10.88;;
23181;SDS011;11759;51.282;6.642;2022-07-01T05:36:26;20.60;;;11.13;;
23181;SDS011;11759;51.282;6.642;2022-07-01T05:38:53;19.02;;;11.32;;
23181;SDS011;11759;51.282;6.642;2022-07-01T05:41:19;25.23;;;10.75;;
23181;SDS011;11759;51.282;6.642;2022-07-01T05:43:46;28.48;;;10.57;;
23181;SDS011;11759;51.282;6.642;2022-07-01T05:46:12;24.83;;;11.48;;
23181;SDS011;11759;51.282;6.642;2022-07-01T05:48:39;21.00;;;11.38;;
23181;SDS011;11759;51.282;6.642;2022-07-01T05:51:06;27.30;;;10.20;;
23181;SDS011;11759;51.282;6.642;2022-07-01T05:53:32;18.70;;;10.88;;
23181;SDS011;11759;51.282;6.642;2022-07-01T05:55:59;25.98;;;10.68;;
23181;SDS011;11759;51.282;6.642;2022-07-01T05:58:25;20.98;;;10.57;;
23181;SDS011;11759;51.282;6.642;2022-07-01T06:00:52;21.98;;;10.48;;
23181;SDS011;11759;51.282;6.642;2022-07-01T06:03:18;30.00;;;11.80;;
23181;SDS011;11759;51.282;6.642;2022-07-01T06:05:45;19.63;;;10.07;;
23181;SDS011;11759;51.282;6.642;2022-07-01T06:08:12;26.20;;;10.93;;
23181;SDS011;11759;51.282;6.642;2022-07-01T06:10:38;24.42;;;11.48;;
23181;SDS011;11759;51.282;6.642;2022-07-01T06:13:05;23.00;;;12.07;;
23181;SDS011;11759;51.282;6.642;2022-07-01T06:15:32;19.23;;;11.27;;
23181;SDS011;11759;51.282;6.642;2022-07-01T06:17:59;30.27;;;12.23;;
23181;SDS011;11759;51.282;6.642;2022-07-01T06:20:26;30.55;;;12.23;;
23181;SDS011;11759;51.282;6.642;2022-07-01T06:22:52;26.70;;;12.02;;
23181;SDS011;11759;51.282;6.642;2022-07-01T06:25:19;25.75;;;11.10;;
23181;SDS011;11759;51.282;6.642;2022-07-01T06:27:46;24.25;;;12.23;;
23181;SDS011;11759;51.282;6.642;2022-07-01T06:30:13;25.10;;;12.20;;
23181;SDS011;11759;51.282;6.642;2022-07-01T06:32:39;21.73;;;11.88;;
23181;SDS011;11759;51.282;6.642;2022-07-01T06:35:06;26.77;;;12.02;;
23181;SDS011;11759;51.282;6.642;2022-07-01T06:37:34;22.85;;;10.88;;
23181;SDS011;11759;51.282;6.642;2022-07-01T06:40:02;16.90;;;10.55;;
23181;SDS011;11759;51.282;6.642;2022-07-01T06:42:30;16.45;;;10.07;;
23181;SDS011;11759;51.282;6.642;2022-07-01T06:44:57;18.75;;;10.73;;
23181;SDS011;11759;51.282;6.642;2022-07-01T06:47:23;20.40;;;10.45;;
23181;SDS011;11759;51.282;6.642;2022-07-01T06:49:51;19.85;;;10.77;;
23181;SDS011;11759;51.282;6.642;2022-07-01T06:52:20;22.65;;;12.10;;
23181;SDS011;11759;51.282;6.642;2022-07-01T06:54:47;24.90;;;12.93;;
23181;SDS011;11759;51.282;6.642;2022-07-01T06:57:13;20.38;;;13.02;;
23181;SDS011;11759;51.282;6.642;2022-07-01T06:59:40;23.98;;;13.25;;
23181;SDS011;11759;51.282;6.642;2022-07-01T07:02:06;23.23;;;13.80;;
23181;SDS011;11759;51.282;6.642;2022-07-01T07:04:33;27.27;;;14.40;;
23181;SDS011;11759;51.282;6.642;2022-07-01T07:07:24;24.90;;;14.55;;
23181;SDS011;11759;51.282;6.642;2022-07-01T07:09:50;20.90;;;13.63;;
23181;SDS011;11759;51.282;6.642;2022-07-01T07:12:17;24.35;;;13.18;;
23181;SDS011;11759;51.282;6.642;2022-07-01T07:14:43;20.50;;;11.75;;
23181;SDS011;11759;51.282;6.642;2022-07-01T07:17:10;18.45;;;12.32;;
23181;SDS011;11759;51.282;6.642;2022-07-01T07:19:37;22.77;;;11.63;;
23181;SDS011;11759;51.282;6.642;2022-07-01T07:22:03;16.70;;;11.20;;
23181;SDS011;11759;51.282;6.642;2022-07-01T07:24:30;18.52;;;10.30;;
23181;SDS011;11759;51.282;6.642;2022-07-01T07:26:57;16.27;;;10.43;;
23181;SDS011;11759;51.282;6.642;2022-07-01T07:29:23;18.83;;;10.38;;
23181;SDS011;11759;51.282;6.642;2022-07-01T07:31:50;17.15;;;10.43;;
23181;SDS011;11759;51.282;6.642;2022-07-01T07:34:17;12.55;;;9.88;;
23181;SDS011;11759;51.282;6.642;2022-07-01T07:36:43;15.45;;;9.52;;
23181;SDS011;11759;51.282;6.642;2022-07-01T07:39:10;12.77;;;10.15;;
23181;SDS011;11759;51.282;6.642;2022-07-01T07:41:37;18.38;;;9.70;;
23181;SDS011;11759;51.282;6.642;2022-07-01T07:44:05;15.70;;;10.20;;
23181;SDS011;11759;51.282;6.642;2022-07-01T07:46:32;18.08;;;10.05;;
23181;SDS011;11759;51.282;6.642;2022-07-01T07:48:58;16.75;;;10.10;;
23181;SDS011;11759;51.282;6.642;2022-07-01T07:51:25;14.45;;;9.27;;
23181;SDS011;11759;51.282;6.642;2022-07-01T07:53:52;14.55;;;9.32;;
23181;SDS011;11759;51.282;6.642;2022-07-01T07:56:19;16.60;;;8.65;;
23181;SDS011;11759;51.282;6.642;2022-07-01T07:58:46;17.23;;;9.10;;
23181;SDS011;11759;51.282;6.642;2022-07-01T08:01:13;15.25;;;8.82;;
23181;SDS011;11759;51.282;6.642;2022-07-01T08:03:40;14.50;;;8.68;;
23181;SDS011;11759;51.282;6.642;2022-07-01T08:06:07;20.15;;;8.35;;
23181;SDS011;11759;51.282;6.642;2022-07-01T08:08:33;12.35;;;8.23;;
23181;SDS011;11759;51.282;6.642;2022-07-01T08:11:00;11.82;;;7.18;;
23181;SDS011;11759;51.282;6.642;2022-07-01T08:13:27;18.58;;;7.47;;
23181;SDS011;11759;51.282;6.642;2022-07-01T08:15:54;15.55;;;6.20;;
23181;SDS011;11759;51.282;6.642;2022-07-01T08:18:22;12.43;;;5.40;;
23181;SDS011;11759;51.282;6.642;2022-07-01T08:20:48;10.93;;;4.50;;
23181;SDS011;11759;51.282;6.642;2022-07-01T08:23:19;7.82;;;5.00;;
23181;SDS011;11759;51.282;6.642;2022-07-01T08:25:47;11.65;;;5.22;;
23181;SDS011;11759;51.282;6.642;2022-07-01T08:28:14;12.43;;;4.82;;
23181;SDS011;11759;51.282;6.642;2022-07-01T08:30:41;9.18;;;4.85;;
23181;SDS011;11759;51.282;6.642;2022-07-01T08:33:09;12.23;;;4.47;;
23181;SDS011;11759;51.282;6.642;2022-07-01T08:35:36;10.50;;;4.80;;
23181;SDS011;11759;51.282;6.642;2022-07-01T08:38:02;8.25;;;3.55;;
23181;SDS011;11759;51.282;6.642;2022-07-01T08:40:30;10.23;;;3.70;;
23181;SDS011;11759;51.282;6.642;2022-07-01T08:43:01;10.15;;;3.33;;
23181;SDS011;11759;51.282;6.642;2022-07-01T08:45:30;8.35;;;2.97;;
23181;SDS011;11759;51.282;6.642;2022-07-01T08:47:59;6.78;;;2.58;;
23181;SDS011;11759;51.282;6.642;2022-07-01T08:50:30;5.88;;;2.50;;
23181;SDS011;11759;51.282;6.642;2022-07-01T08:52:57;5.15;;;2.30;;
23181;SDS011;11759;51.282;6.642;2022-07-01T08:55:25;3.40;;;1.73;;
23181;SDS011;11759;51.282;6.642;2022-07-01T08:57:52;5.07;;;2.15;;
23181;SDS011;11759;51.282;6.642;2022-07-01T09:00:19;5.20;;;2.08;;
23181;SDS011;11759;51.282;6.642;2022-07-01T09:02:50;7.63;;;1.92;;
23181;SDS011;11759;51.282;6.642;2022-07-01T09:05:18;7.82;;;2.20;;
23181;SDS011;11759;51.282;6.642;2022-07-01T09:07:46;8.18;;;2.00;;
23181;SDS011;11759;51.282;6.642;2022-07-01T09:10:17;6.43;;;1.80;;
23181;SDS011;11759;51.282;6.642;2022-07-01T09:12:45;4.97;;;2.00;;
23181;SDS011;11759;51.282;6.642;2022-07-01T09:15:22;5.80;;;1.95;;
23181;SDS011;11759;51.282;6.642;2022-07-01T09:18:02;5.80;;;1.60;;
23181;SDS011;11759;51.282;6.642;2022-07-01T09:20:32;4.38;;;1.80;;
23181;SDS011;11759;51.282;6.642;2022-07-01T09:23:00;8.50;;;1.42;;
23181;SDS011;11759;51.282;6.642;2022-07-01T09:25:35;4.15;;;1.60;;
23181;SDS011;11759;51.282;6.642;2022-07-01T09:28:12;4.43;;;1.60;;
23181;SDS011;11759;51.282;6.642;2022-07-01T09:30:46;5.45;;;1.48;;
23181;SDS011;11759;51.282;6.642;2022-07-01T09:33:15;4.72;;;1.33;;
23181;SDS011;11759;51.282;6.642;2022-07-01T09:35:44;3.47;;;1.60;;
23181;SDS011;11759;51.282;6.642;2022-07-01T09:38:13;4.18;;;1.45;;
23181;SDS011;11759;51.282;6.642;2022-07-01T09:43:33;7.55;;;1.60;;
23181;SDS011;11759;51.282;6.642;2022-07-01T09:46:02;3.92;;;1.23;;
23181;SDS011;11759;51.282;6.642;2022-07-01T09:51:04;4.47;;;1.70;;
23181;SDS011;11759;51.282;6.642;2022-07-01T09:53:39;7.28;;;1.50;;
23181;SDS011;11759;51.282;6.642;2022-07-01T09:56:06;4.90;;;1.55;;
23181;SDS011;11759;51.282;6.642;2022-07-01T09:58:33;3.28;;;1.60;;
23181;SDS011;11759;51.282;6.642;2022-07-01T10:01:01;4.35;;;1.60;;
23181;SDS011;11759;51.282;6.642;2022-07-01T10:03:29;4.80;;;1.48;;
23181;SDS011;11759;51.282;6.642;2022-07-01T10:06:03;6.50;;;1.50;;
23181;SDS011;11759;51.282;6.642;2022-07-01T10:14:04;4.90;;;1.50;;
23181;SDS011;11759;51.282;6.642;2022-07-01T10:16:32;4.50;;;1.70;;
23181;SDS011;11759;51.282;6.642;2022-07-01T10:18:59;3.05;;;1.60;;
23181;SDS011;11759;51.282;6.642;2022-07-01T10:21:26;2.78;;;1.23;;
23181;SDS011;11759;51.282;6.642;2022-07-01T10:24:15;4.03;;;1.70;;
23181;SDS011;11759;51.282;6.642;2022-07-01T10:26:43;5.20;;;1.77;;
23181;SDS011;11759;51.282;6.642;2022-07-01T10:32:42;6.65;;;1.85;;
23181;SDS011;11759;51.282;6.642;2022-07-01T10:35:08;4.75;;;1.65;;
23181;SDS011;11759;51.282;6.642;2022-07-01T10:37:34;6.57;;;1.60;;
23181;SDS011;11759;51.282;6.642;2022-07-01T10:40:02;5.20;;;1.40;;
23181;SDS011;11759;51.282;6.642;2022-07-01T10:42:31;5.55;;;1.58;;
23181;SDS011;11759;51.282;6.642;2022-07-01T10:45:10;3.97;;;1.52;;
23181;SDS011;11759;51.282;6.642;2022-07-01T10:47:38;3.17;;;1.10;;
23181;SDS011;11759;51.282;6.642;2022-07-01T10:52:36;4.00;;;1.27;;
23181;SDS011;11759;51.282;6.642;2022-07-01T10:55:04;3.08;;;1.30;;
23181;SDS011;11759;51.282;6.642;2022-07-01T10:57:34;6.07;;;1.30;;
23181;SDS011;11759;51.282;6.642;2022-07-01T11:04:59;3.10;;;1.33;;
23181;SDS011;11759;51.282;6.642;2022-07-01T11:07:28;5.15;;;1.52;;
23181;SDS011;11759;51.282;6.642;2022-07-01T11:09:59;3.88;;;1.33;;
23181;SDS011;11759;51.282;6.642;2022-07-01T11:12:28;1.63;;;0.80;;
23181;SDS011;11759;51.282;6.642;2022-07-01T11:14:55;2.83;;;0.90;;
23181;SDS011;11759;51.282;6.642;2022-07-01T11:17:28;2.03;;;0.80;;
23181;SDS011;11759;51.282;6.642;2022-07-01T11:19:55;2.45;;;0.88;;
23181;SDS011;11759;51.282;6.642;2022-07-01T11:22:28;2.55;;;0.90;;
23181;SDS011;11759;51.282;6.642;2022-07-01T11:24:56;3.85;;;1.00;;
23181;SDS011;11759;51.282;6.642;2022-07-01T11:27:24;3.25;;;0.82;;
23181;SDS011;11759;51.282;6.642;2022-07-01T11:29:52;3.50;;;0.95;;
23181;SDS011;11759;51.282;6.642;2022-07-01T11:32:26;4.95;;;1.00;;
23181;SDS011;11759;51.282;6.642;2022-07-01T11:34:57;2.70;;;0.80;;
23181;SDS011;11759;51.282;6.642;2022-07-01T11:37:26;1.98;;;0.90;;
23181;SDS011;11759;51.282;6.642;2022-07-01T11:40:16;3.30;;;0.80;;
23181;SDS011;11759;51.282;6.642;2022-07-01T11:42:44;2.95;;;0.85;;
23181;SDS011;11759;51.282;6.642;2022-07-01T11:45:24;3.17;;;0.93;;
23181;SDS011;11759;51.282;6.642;2022-07-01T11:47:51;2.13;;;0.80;;
23181;SDS011;11759;51.282;6.642;2022-07-01T11:50:18;2.70;;;1.02;;
23181;SDS011;11759;51.282;6.642;2022-07-01T11:52:46;5.60;;;0.68;;
23181;SDS011;11759;51.282;6.642;2022-07-01T11:55:12;2.03;;;0.73;;
23181;SDS011;11759;51.282;6.642;2022-07-01T11:58:00;2.22;;;0.70;;
23181;SDS011;11759;51.282;6.642;2022-07-01T12:00:32;4.60;;;0.90;;
23181;SDS011;11759;51.282;6.642;2022-07-01T12:03:00;3.55;;;0.70;;
23181;SDS011;11759;51.282;6.642;2022-07-01T12:05:27;4.35;;;0.82;;
23181;SDS011;11759;51.282;6.642;2022-07-01T12:07:54;1.88;;;0.75;;
23181;SDS011;11759;51.282;6.642;2022-07-01T12:10:24;3.88;;;1.20;;
23181;SDS011;11759;51.282;6.642;2022-07-01T12:12:52;4.30;;;0.75;;
23181;SDS011;11759;51.282;6.642;2022-07-01T12:15:19;3.88;;;1.90;;
23181;SDS011;11759;51.282;6.642;2022-07-01T12:17:46;3.95;;;1.20;;
23181;SDS011;11759;51.282;6.642;2022-07-01T12:20:13;2.60;;;1.02;;
23181;SDS011;11759;51.282;6.642;2022-07-01T12:22:39;3.20;;;1.02;;
23181;SDS011;11759;51.282;6.642;2022-07-01T12:25:10;3.35;;;0.77;;
23181;SDS011;11759;51.282;6.642;2022-07-01T12:27:38;3.75;;;0.90;;
23181;SDS011;11759;51.282;6.642;2022-07-01T12:30:07;3.70;;;1.20;;
23181;SDS011;11759;51.282;6.642;2022-07-01T12:32:36;2.63;;;1.00;;
23181;SDS011;11759;51.282;6.642;2022-07-01T12:35:05;3.35;;;1.10;;
23181;SDS011;11759;51.282;6.642;2022-07-01T12:37:58;2.83;;;0.90;;
23181;SDS011;11759;51.282;6.642;2022-07-01T12:40:26;2.85;;;1.23;;
23181;SDS011;11759;51.282;6.642;2022-07-01T12:42:56;5.63;;;1.10;;
23181;SDS011;11759;51.282;6.642;2022-07-01T12:45:26;7.35;;;2.92;;
23181;SDS011;11759;51.282;6.642;2022-07-01T12:47:56;9.07;;;2.67;;
23181;SDS011;11759;51.282;6.642;2022-07-01T12:50:24;5.53;;;1.80;;
23181;SDS011;11759;51.282;6.642;2022-07-01T12:53:04;3.30;;;1.00;;
23181;SDS011;11759;51.282;6.642;2022-07-01T12:55:33;9.38;;;1.25;;
23181;SDS011;11759;51.282;6.642;2022-07-01T12:58:08;3.70;;;0.80;;
23181;SDS011;11759;51.282;6.642;2022-07-01T13:00:37;6.63;;;1.40;;
23181;SDS011;11759;51.282;6.642;2022-07-01T13:03:04;2.70;;;0.80;;
23181;SDS011;11759;51.282;6.642;2022-07-01T13:05:32;5.03;;;1.23;;
23181;SDS011;11759;51.282;6.642;2022-07-01T13:07:59;2.15;;;0.90;;
23181;SDS011;11759;51.282;6.642;2022-07-01T13:10:26;3.25;;;1.10;;
23181;SDS011;11759;51.282;6.642;2022-07-01T13:12:53;3.00;;;0.93;;
23181;SDS011;11759;51.282;6.642;2022-07-01T13:15:20;4.80;;;1.00;;
23181;SDS011;11759;51.282;6.642;2022-07-01T13:17:47;4.78;;;1.00;;
23181;SDS011;11759;51.282;6.642;2022-07-01T13:20:14;5.90;;;0.90;;
23181;SDS011;11759;51.282;6.642;2022-07-01T13:22:41;2.53;;;0.80;;
23181;SDS011;11759;51.282;6.642;2022-07-01T13:25:09;3.72;;;1.70;;
23181;SDS011;11759;51.282;6.642;2022-07-01T13:27:37;1.75;;;0.70;;
23181;SDS011;11759;51.282;6.642;2022-07-01T13:30:05;13.85;;;4.57;;
23181;SDS011;11759;51.282;6.642;2022-07-01T13:32:33;5.85;;;2.20;;
23181;SDS011;11759;51.282;6.642;2022-07-01T13:35:00;3.72;;;0.80;;
23181;SDS011;11759;51.282;6.642;2022-07-01T13:37:29;2.42;;;0.70;;
23181;SDS011;11759;51.282;6.642;2022-07-01T13:39:55;2.45;;;1.00;;
23181;SDS011;11759;51.282;6.642;2022-07-01T13:42:22;3.92;;;1.30;;
23181;SDS011;11759;51.282;6.642;2022-07-01T13:44:49;8.10;;;1.65;;
23181;SDS011;11759;51.282;6.642;2022-07-01T13:47:16;3.95;;;0.80;;
23181;SDS011;11759;51.282;6.642;2022-07-01T13:49:43;5.30;;;0.88;;
23181;SDS011;11759;51.282;6.642;2022-07-01T13:52:10;2.67;;;0.80;;
23181;SDS011;11759;51.282;6.642;2022-07-01T13:54:37;3.08;;;0.82;;
23181;SDS011;11759;51.282;6.642;2022-07-01T13:57:04;2.13;;;0.90;;
23181;SDS011;11759;51.282;6.642;2022-07-01T13:59:31;2.72;;;0.75;;
23181;SDS011;11759;51.282;6.642;2022-07-01T14:02:06;1.75;;;0.63;;
23181;SDS011;11759;51.282;6.642;2022-07-01T14:04:32;3.20;;;0.88;;
23181;SDS011;11759;51.282;6.642;2022-07-01T14:06:59;5.18;;;0.85;;
23181;SDS011;11759;51.282;6.642;2022-07-01T14:09:26;2.75;;;0.73;;
23181;SDS011;11759;51.282;6.642;2022-07-01T14:11:52;2.25;;;0.90;;
23181;SDS011;11759;51.282;6.642;2022-07-01T14:14:19;4.03;;;0.80;;
23181;SDS011;11759;51.282;6.642;2022-07-01T14:16:46;1.38;;;0.60;;
23181;SDS011;11759;51.282;6.642;2022-07-01T14:19:12;4.13;;;1.02;;
23181;SDS011;11759;51.282;6.642;2022-07-01T14:21:39;6.38;;;1.67;;
23181;SDS011;11759;51.282;6.642;2022-07-01T14:24:06;3.75;;;1.02;;
23181;SDS011;11759;51.282;6.642;2022-07-01T14:26:33;4.28;;;0.60;;
23181;SDS011;11759;51.282;6.642;2022-07-01T14:28:59;2.67;;;0.70;;
23181;SDS011;11759;51.282;6.642;2022-07-01T14:31:26;2.33;;;0.93;;
23181;SDS011;11759;51.282;6.642;2022-07-01T14:33:52;3.08;;;1.00;;
23181;SDS011;11759;51.282;6.642;2022-07-01T14:36:19;3.53;;;0.60;;
23181;SDS011;11759;51.282;6.642;2022-07-01T14:38:46;4.35;;;0.73;;
23181;SDS011;11759;51.282;6.642;2022-07-01T14:41:12;4.82;;;0.85;;
23181;SDS011;11759;51.282;6.642;2022-07-01T14:43:39;2.65;;;0.70;;
23181;SDS011;11759;51.282;6.642;2022-07-01T14:46:06;7.35;;;0.82;;
23181;SDS011;11759;51.282;6.642;2022-07-01T14:48:37;3.70;;;0.68;;
23181;SDS011;11759;51.282;6.642;2022-07-01T14:51:05;3.35;;;0.93;;
23181;SDS011;11759;51.282;6.642;2022-07-01T14:53:33;4.05;;;0.98;;
23181;SDS011;11759;51.282;6.642;2022-07-01T14:55:59;1.63;;;1.00;;
23181;SDS011;11759;51.282;6.642;2022-07-01T14:58:26;2.60;;;0.65;;
23181;SDS011;11759;51.282;6.642;2022-07-01T15:00:53;7.32;;;0.85;;
23181;SDS011;11759;51.282;6.642;2022-07-01T15:03:20;1.67;;;0.63;;